Picture Rocks, Pennsylvania
Current Conditions -  °F | °C
As of 1:54 PM on Thursday 23 Oct 2014 (Local Time) from KIPT Reporting Station
Overcast Overcast  
Wind Chill: 57°   Ceiling: 3300
Heat Index: 57°   Visibility: 10mi
Dew Point: 43°   Wind: 13mph
Humidity: 59%   Direction: 330°NNW
Pressure: 29.89"   Gusts: 23mph
Location:  41.28°N, 76.71°W
Report Text: KIPT 231754Z 33011G20KT 10SM OVC033 14/06 A2989 RMK AO2 SLP122 T01390061 10150 20106 55008
Loading
Personal Weather Stations






























Interactive Weather Map
Tropical Storm Tracking
New forecast layout! Learn more

10-Day Weather Forecast

Advertisements
Track Severe Weather on mobile